sensor_id;sensor_type;location;lat;lon;timestamp;pressure;altitude;pressure_sealevel;temperature;humidity
61898;BME280;47850;50.274;18.908;2022-12-05T00:02:08;98499.45;;;0.24;98.33
61898;BME280;47850;50.274;18.908;2022-12-05T00:04:34;98500.64;;;0.26;98.19
61898;BME280;47850;50.274;18.908;2022-12-05T00:06:59;98502.95;;;0.25;98.20
61898;BME280;47850;50.274;18.908;2022-12-05T00:09:26;98500.17;;;0.26;98.17
61898;BME280;47850;50.274;18.908;2022-12-05T00:11:51;98498.17;;;0.26;98.10
61898;BME280;47850;50.274;18.908;2022-12-05T00:14:16;98498.47;;;0.24;98.06
61898;BME280;47850;50.274;18.908;2022-12-05T00:16:42;98500.10;;;0.22;97.88
61898;BME280;47850;50.274;18.908;2022-12-05T00:19:11;98495.03;;;0.17;97.85
61898;BME280;47850;50.274;18.908;2022-12-05T00:21:38;98491.80;;;0.12;97.90
61898;BME280;47850;50.274;18.908;2022-12-05T00:24:05;98485.59;;;0.11;98.01
61898;BME280;47850;50.274;18.908;2022-12-05T00:26:31;98487.75;;;0.11;98.20
61898;BME280;47850;50.274;18.908;2022-12-05T00:28:58;98491.70;;;0.11;98.09
61898;BME280;47850;50.274;18.908;2022-12-05T00:31:24;98487.15;;;0.10;97.98
61898;BME280;47850;50.274;18.908;2022-12-05T00:33:51;98480.22;;;0.10;98.00
61898;BME280;47850;50.274;18.908;2022-12-05T00:38:43;98479.54;;;0.18;98.36
61898;BME280;47850;50.274;18.908;2022-12-05T00:41:12;98479.36;;;0.20;97.99
61898;BME280;47850;50.274;18.908;2022-12-05T00:43:38;98479.96;;;0.21;98.05
61898;BME280;47850;50.274;18.908;2022-12-05T00:46:08;98476.27;;;0.21;97.80
61898;BME280;47850;50.274;18.908;2022-12-05T00:48:35;98466.66;;;0.20;97.71
61898;BME280;47850;50.274;18.908;2022-12-05T00:51:03;98466.67;;;0.22;97.74
61898;BME280;47850;50.274;18.908;2022-12-05T00:53:29;98463.20;;;0.23;97.67
61898;BME280;47850;50.274;18.908;2022-12-05T00:55:55;98462.20;;;0.20;97.41
61898;BME280;47850;50.274;18.908;2022-12-05T00:58:20;98463.43;;;0.17;97.28
61898;BME280;47850;50.274;18.908;2022-12-05T01:00:46;98463.81;;;0.17;97.32
61898;BME280;47850;50.274;18.908;2022-12-05T01:03:11;98471.80;;;0.20;97.54
61898;BME280;47850;50.274;18.908;2022-12-05T01:05:36;98468.47;;;0.20;97.73
61898;BME280;47850;50.274;18.908;2022-12-05T01:08:02;98470.70;;;0.18;97.40
61898;BME280;47850;50.274;18.908;2022-12-05T01:10:28;98473.38;;;0.17;97.50
61898;BME280;47850;50.274;18.908;2022-12-05T01:12:53;98474.27;;;0.12;97.19
61898;BME280;47850;50.274;18.908;2022-12-05T01:15:18;98470.79;;;0.11;97.38
61898;BME280;47850;50.274;18.908;2022-12-05T01:17:44;98468.94;;;0.09;97.60
61898;BME280;47850;50.274;18.908;2022-12-05T01:20:09;98461.80;;;0.05;97.69
61898;BME280;47850;50.274;18.908;2022-12-05T01:22:35;98455.48;;;0.02;97.61
61898;BME280;47850;50.274;18.908;2022-12-05T01:25:00;98449.14;;;0.02;97.92
61898;BME280;47850;50.274;18.908;2022-12-05T01:27:27;98443.06;;;0.01;97.85
61898;BME280;47850;50.274;18.908;2022-12-05T01:29:52;98438.93;;;0.04;98.07
61898;BME280;47850;50.274;18.908;2022-12-05T01:32:18;98438.90;;;0.06;97.90
61898;BME280;47850;50.274;18.908;2022-12-05T01:34:43;98439.20;;;0.04;97.78
61898;BME280;47850;50.274;18.908;2022-12-05T01:37:09;98437.55;;;0.04;97.92
61898;BME280;47850;50.274;18.908;2022-12-05T01:39:34;98437.82;;;0.04;97.96
61898;BME280;47850;50.274;18.908;2022-12-05T01:41:59;98435.82;;;0.04;97.95
61898;BME280;47850;50.274;18.908;2022-12-05T01:46:51;98443.60;;;0.01;97.81
61898;BME280;47850;50.274;18.908;2022-12-05T01:51:54;98453.73;;;-0.00;97.66
61898;BME280;47850;50.274;18.908;2022-12-05T01:54:22;98455.73;;;0.02;97.96
61898;BME280;47850;50.274;18.908;2022-12-05T01:56:56;98454.02;;;0.05;97.95
61898;BME280;47850;50.274;18.908;2022-12-05T01:59:24;98451.94;;;0.06;97.92
61898;BME280;47850;50.274;18.908;2022-12-05T02:01:50;98451.88;;;0.05;97.72
61898;BME280;47850;50.274;18.908;2022-12-05T02:04:16;98455.45;;;0.07;97.99
61898;BME280;47850;50.274;18.908;2022-12-05T02:06:42;98458.64;;;0.08;97.89
61898;BME280;47850;50.274;18.908;2022-12-05T02:09:07;98458.55;;;0.08;97.70
61898;BME280;47850;50.274;18.908;2022-12-05T02:11:34;98456.56;;;0.09;97.78
61898;BME280;47850;50.274;18.908;2022-12-05T02:20:04;98455.55;;;0.17;97.73
61898;BME280;47850;50.274;18.908;2022-12-05T02:33:47;98476.86;;;0.18;97.28
61898;BME280;47850;50.274;18.908;2022-12-05T02:36:39;98477.10;;;0.16;97.36
61898;BME280;47850;50.274;18.908;2022-12-05T02:39:21;98473.29;;;0.15;97.39
61898;BME280;47850;50.274;18.908;2022-12-05T02:44:57;98475.20;;;0.15;97.30
61898;BME280;47850;50.274;18.908;2022-12-05T02:47:26;98474.25;;;0.16;97.29
61898;BME280;47850;50.274;18.908;2022-12-05T02:49:54;98472.11;;;0.16;97.47
61898;BME280;47850;50.274;18.908;2022-12-05T02:52:21;98462.60;;;0.15;97.26
61898;BME280;47850;50.274;18.908;2022-12-05T02:54:48;98462.48;;;0.14;97.31
61898;BME280;47850;50.274;18.908;2022-12-05T02:57:15;98466.54;;;0.13;97.52
61898;BME280;47850;50.274;18.908;2022-12-05T02:59:42;98467.64;;;0.11;97.41
61898;BME280;47850;50.274;18.908;2022-12-05T03:02:19;98464.17;;;0.10;97.53
61898;BME280;47850;50.274;18.908;2022-12-05T03:04:46;98452.60;;;0.07;97.58
61898;BME280;47850;50.274;18.908;2022-12-05T03:07:13;98455.00;;;0.09;97.83
61898;BME280;47850;50.274;18.908;2022-12-05T03:09:50;98462.58;;;0.09;97.74
61898;BME280;47850;50.274;18.908;2022-12-05T03:12:31;98461.89;;;0.08;97.65
61898;BME280;47850;50.274;18.908;2022-12-05T03:15:13;98461.66;;;0.07;97.64
61898;BME280;47850;50.274;18.908;2022-12-05T03:17:50;98461.06;;;0.09;97.84
61898;BME280;47850;50.274;18.908;2022-12-05T03:20:26;98462.80;;;0.10;97.61
61898;BME280;47850;50.274;18.908;2022-12-05T03:22:58;98464.45;;;0.12;97.83
61898;BME280;47850;50.274;18.908;2022-12-05T03:25:34;98464.27;;;0.16;97.84
61898;BME280;47850;50.274;18.908;2022-12-05T03:28:18;98463.91;;;0.20;97.97
61898;BME280;47850;50.274;18.908;2022-12-05T03:30:46;98458.84;;;0.22;97.60
61898;BME280;47850;50.274;18.908;2022-12-05T03:33:13;98451.73;;;0.23;97.53
61898;BME280;47850;50.274;18.908;2022-12-05T03:35:43;98449.73;;;0.25;97.54
61898;BME280;47850;50.274;18.908;2022-12-05T03:38:13;98451.77;;;0.26;97.44
61898;BME280;47850;50.274;18.908;2022-12-05T03:43:45;98450.84;;;0.24;97.23
61898;BME280;47850;50.274;18.908;2022-12-05T03:46:23;98444.70;;;0.23;97.27
61898;BME280;47850;50.274;18.908;2022-12-05T03:51:22;98447.13;;;0.24;97.09
61898;BME280;47850;50.274;18.908;2022-12-05T03:53:56;98439.04;;;0.24;97.02
61898;BME280;47850;50.274;18.908;2022-12-05T03:56:43;98430.66;;;0.24;97.15
61898;BME280;47850;50.274;18.908;2022-12-05T04:01:53;98417.48;;;0.25;96.96
61898;BME280;47850;50.274;18.908;2022-12-05T04:04:28;98413.39;;;0.24;97.01
61898;BME280;47850;50.274;18.908;2022-12-05T04:06:56;98418.70;;;0.24;96.90
61898;BME280;47850;50.274;18.908;2022-12-05T04:09:40;98425.52;;;0.21;96.90
61898;BME280;47850;50.274;18.908;2022-12-05T04:12:10;98425.33;;;0.23;97.17
61898;BME280;47850;50.274;18.908;2022-12-05T04:14:41;98425.20;;;0.24;97.13
61898;BME280;47850;50.274;18.908;2022-12-05T04:17:39;98428.54;;;0.25;97.03
61898;BME280;47850;50.274;18.908;2022-12-05T04:20:13;98428.89;;;0.24;96.89
61898;BME280;47850;50.274;18.908;2022-12-05T04:22:59;98427.01;;;0.23;96.73
61898;BME280;47850;50.274;18.908;2022-12-05T04:25:29;98421.13;;;0.22;96.72
61898;BME280;47850;50.274;18.908;2022-12-05T04:31:16;98409.88;;;0.23;96.69
61898;BME280;47850;50.274;18.908;2022-12-05T04:33:57;98407.17;;;0.22;96.55
61898;BME280;47850;50.274;18.908;2022-12-05T04:36:35;98396.40;;;0.21;96.53
61898;BME280;47850;50.274;18.908;2022-12-05T04:41:53;98405.55;;;0.16;96.64
61898;BME280;47850;50.274;18.908;2022-12-05T04:44:24;98411.52;;;0.17;96.71
61898;BME280;47850;50.274;18.908;2022-12-05T04:46:53;98421.40;;;0.18;96.76
61898;BME280;47850;50.274;18.908;2022-12-05T04:49:25;98420.40;;;0.20;96.69
61898;BME280;47850;50.274;18.908;2022-12-05T04:51:55;98421.69;;;0.20;96.50
61898;BME280;47850;50.274;18.908;2022-12-05T04:54:30;98429.04;;;0.20;96.40
61898;BME280;47850;50.274;18.908;2022-12-05T04:57:16;98428.18;;;0.19;96.36
61898;BME280;47850;50.274;18.908;2022-12-05T04:59:44;98420.91;;;0.21;96.66
61898;BME280;47850;50.274;18.908;2022-12-05T05:02:12;98420.64;;;0.22;96.58
61898;BME280;47850;50.274;18.908;2022-12-05T05:04:43;98423.02;;;0.23;96.54
61898;BME280;47850;50.274;18.908;2022-12-05T05:07:11;98423.58;;;0.20;96.35
61898;BME280;47850;50.274;18.908;2022-12-05T05:09:38;98426.16;;;0.17;96.24
61898;BME280;47850;50.274;18.908;2022-12-05T05:12:04;98428.77;;;0.13;96.32
61898;BME280;47850;50.274;18.908;2022-12-05T05:14:30;98426.84;;;0.09;96.38
61898;BME280;47850;50.274;18.908;2022-12-05T05:16:56;98423.31;;;0.07;96.43
61898;BME280;47850;50.274;18.908;2022-12-05T05:19:22;98426.25;;;0.05;96.70
61898;BME280;47850;50.274;18.908;2022-12-05T05:21:48;98429.21;;;0.06;96.83
61898;BME280;47850;50.274;18.908;2022-12-05T05:24:13;98429.00;;;0.06;96.74
61898;BME280;47850;50.274;18.908;2022-12-05T05:26:42;98426.46;;;0.05;96.98
61898;BME280;47850;50.274;18.908;2022-12-05T05:29:08;98419.12;;;0.05;96.94
61898;BME280;47850;50.274;18.908;2022-12-05T05:31:35;98418.00;;;0.05;96.99
61898;BME280;47850;50.274;18.908;2022-12-05T05:34:01;98413.55;;;0.06;97.10
61898;BME280;47850;50.274;18.908;2022-12-05T05:36:27;98413.91;;;0.06;97.05
61898;BME280;47850;50.274;18.908;2022-12-05T05:38:55;98407.08;;;0.07;97.25
61898;BME280;47850;50.274;18.908;2022-12-05T05:41:35;98401.67;;;0.05;97.08
61898;BME280;47850;50.274;18.908;2022-12-05T05:44:02;98401.13;;;0.00;97.13
61898;BME280;47850;50.274;18.908;2022-12-05T05:46:32;98406.75;;;-0.04;97.12
61898;BME280;47850;50.274;18.908;2022-12-05T05:48:58;98400.50;;;-0.08;97.37
61898;BME280;47850;50.274;18.908;2022-12-05T05:51:24;98398.62;;;-0.12;97.35
61898;BME280;47850;50.274;18.908;2022-12-05T05:53:52;98394.38;;;-0.16;97.48
61898;BME280;47850;50.274;18.908;2022-12-05T05:56:18;98399.81;;;-0.19;97.60
61898;BME280;47850;50.274;18.908;2022-12-05T05:58:44;98400.05;;;-0.21;97.55
61898;BME280;47850;50.274;18.908;2022-12-05T06:01:14;98393.48;;;-0.23;97.80
61898;BME280;47850;50.274;18.908;2022-12-05T06:03:40;98398.73;;;-0.23;97.97
61898;BME280;47850;50.274;18.908;2022-12-05T06:06:08;98402.11;;;-0.25;98.26
61898;BME280;47850;50.274;18.908;2022-12-05T06:08:38;98402.79;;;-0.26;98.15
61898;BME280;47850;50.274;18.908;2022-12-05T06:11:06;98401.14;;;-0.26;98.12
61898;BME280;47850;50.274;18.908;2022-12-05T06:13:31;98395.92;;;-0.27;97.98
61898;BME280;47850;50.274;18.908;2022-12-05T06:15:57;98394.26;;;-0.27;98.15
61898;BME280;47850;50.274;18.908;2022-12-05T06:18:23;98395.48;;;-0.28;98.13
61898;BME280;47850;50.274;18.908;2022-12-05T06:20:56;98399.54;;;-0.29;98.39
61898;BME280;47850;50.274;18.908;2022-12-05T06:23:22;98402.66;;;-0.29;98.23
61898;BME280;47850;50.274;18.908;2022-12-05T06:25:49;98402.86;;;-0.29;98.48
61898;BME280;47850;50.274;18.908;2022-12-05T06:28:16;98407.48;;;-0.29;98.48
61898;BME280;47850;50.274;18.908;2022-12-05T06:30:42;98410.08;;;-0.29;98.76
61898;BME280;47850;50.274;18.908;2022-12-05T06:33:07;98409.27;;;-0.30;98.68
61898;BME280;47850;50.274;18.908;2022-12-05T06:35:33;98404.98;;;-0.30;98.69
61898;BME280;47850;50.274;18.908;2022-12-05T06:37:58;98401.27;;;-0.28;98.85
61898;BME280;47850;50.274;18.908;2022-12-05T06:40:24;98405.77;;;-0.26;98.75
61898;BME280;47850;50.274;18.908;2022-12-05T06:42:49;98410.02;;;-0.24;98.87
61898;BME280;47850;50.274;18.908;2022-12-05T06:45:17;98408.77;;;-0.21;98.75
61898;BME280;47850;50.274;18.908;2022-12-05T06:47:43;98418.17;;;-0.20;98.97
61898;BME280;47850;50.274;18.908;2022-12-05T06:50:09;98420.15;;;-0.18;98.91
61898;BME280;47850;50.274;18.908;2022-12-05T06:52:35;98417.13;;;-0.15;98.73
61898;BME280;47850;50.274;18.908;2022-12-05T06:55:00;98419.20;;;-0.12;98.90
61898;BME280;47850;50.274;18.908;2022-12-05T06:57:29;98416.94;;;-0.10;98.93
61898;BME280;47850;50.274;18.908;2022-12-05T06:59:55;98415.36;;;-0.08;98.84
61898;BME280;47850;50.274;18.908;2022-12-05T07:02:41;98422.26;;;-0.03;99.00
61898;BME280;47850;50.274;18.908;2022-12-05T07:05:08;98425.52;;;-0.00;98.97
61898;BME280;47850;50.274;18.908;2022-12-05T07:07:34;98423.33;;;0.03;98.81
61898;BME280;47850;50.274;18.908;2022-12-05T07:09:59;98420.17;;;0.08;98.79
61898;BME280;47850;50.274;18.908;2022-12-05T07:12:25;98419.61;;;0.13;98.90
61898;BME280;47850;50.274;18.908;2022-12-05T07:14:50;98416.50;;;0.16;98.54
61898;BME280;47850;50.274;18.908;2022-12-05T07:17:19;98417.09;;;0.17;98.32
61898;BME280;47850;50.274;18.908;2022-12-05T07:19:47;98416.95;;;0.18;98.22
61898;BME280;47850;50.274;18.908;2022-12-05T07:22:14;98416.91;;;0.19;98.33
61898;BME280;47850;50.274;18.908;2022-12-05T07:24:39;98419.36;;;0.22;98.16
61898;BME280;47850;50.274;18.908;2022-12-05T07:27:04;98418.91;;;0.28;98.35
61898;BME280;47850;50.274;18.908;2022-12-05T07:29:30;98417.34;;;0.35;98.33
61898;BME280;47850;50.274;18.908;2022-12-05T07:31:56;98421.45;;;0.40;98.23
61898;BME280;47850;50.274;18.908;2022-12-05T07:34:21;98421.59;;;0.46;98.19
61898;BME280;47850;50.274;18.908;2022-12-05T07:36:46;98425.60;;;0.52;97.86
61898;BME280;47850;50.274;18.908;2022-12-05T07:39:12;98427.70;;;0.58;97.95
61898;BME280;47850;50.274;18.908;2022-12-05T07:41:37;98424.48;;;0.66;97.70
61898;BME280;47850;50.274;18.908;2022-12-05T07:44:03;98420.11;;;0.72;97.54
61898;BME280;47850;50.274;18.908;2022-12-05T07:46:29;98418.30;;;0.78;97.27
61898;BME280;47850;50.274;18.908;2022-12-05T07:48:54;98412.25;;;0.83;97.01
61898;BME280;47850;50.274;18.908;2022-12-05T07:51:20;98420.92;;;0.89;96.77
61898;BME280;47850;50.274;18.908;2022-12-05T07:53:46;98421.33;;;0.92;96.63
61898;BME280;47850;50.274;18.908;2022-12-05T07:56:14;98422.02;;;0.97;96.63
61898;BME280;47850;50.274;18.908;2022-12-05T07:58:42;98422.64;;;1.02;96.61
61898;BME280;47850;50.274;18.908;2022-12-05T08:01:11;98420.42;;;1.07;96.33
61898;BME280;47850;50.274;18.908;2022-12-05T08:03:37;98423.52;;;1.14;96.11
61898;BME280;47850;50.274;18.908;2022-12-05T08:06:05;98413.02;;;1.18;95.77
61898;BME280;47850;50.274;18.908;2022-12-05T08:08:31;98415.25;;;1.23;95.60
61898;BME280;47850;50.274;18.908;2022-12-05T08:11:09;98417.85;;;1.31;95.57
61898;BME280;47850;50.274;18.908;2022-12-05T08:13:35;98425.04;;;1.40;95.77
61898;BME280;47850;50.274;18.908;2022-12-05T08:16:03;98430.66;;;1.49;95.49
61898;BME280;47850;50.274;18.908;2022-12-05T08:18:29;98430.84;;;1.55;95.17
61898;BME280;47850;50.274;18.908;2022-12-05T08:20:54;98425.25;;;1.62;94.90
61898;BME280;47850;50.274;18.908;2022-12-05T08:23:20;98428.02;;;1.70;94.88
61898;BME280;47850;50.274;18.908;2022-12-05T08:25:45;98425.64;;;1.80;94.80
61898;BME280;47850;50.274;18.908;2022-12-05T08:28:11;98431.66;;;1.86;94.24
61898;BME280;47850;50.274;18.908;2022-12-05T08:30:36;98434.73;;;1.87;93.93
61898;BME280;47850;50.274;18.908;2022-12-05T08:33:01;98436.19;;;1.87;93.75
61898;BME280;47850;50.274;18.908;2022-12-05T08:35:27;98431.90;;;1.90;93.79
61898;BME280;47850;50.274;18.908;2022-12-05T08:37:53;98434.00;;;1.97;93.47
61898;BME280;47850;50.274;18.908;2022-12-05T08:40:18;98443.01;;;2.05;93.34
61898;BME280;47850;50.274;18.908;2022-12-05T08:42:44;98445.55;;;2.15;93.49
61898;BME280;47850;50.274;18.908;2022-12-05T08:45:10;98443.61;;;2.22;92.78
61898;BME280;47850;50.274;18.908;2022-12-05T08:47:35;98438.95;;;2.25;92.45
61898;BME280;47850;50.274;18.908;2022-12-05T08:50:00;98444.96;;;2.30;92.32
61898;BME280;47850;50.274;18.908;2022-12-05T08:52:26;98443.63;;;2.39;92.59
61898;BME280;47850;50.274;18.908;2022-12-05T08:54:51;98447.30;;;2.48;92.34
61898;BME280;47850;50.274;18.908;2022-12-05T08:57:17;98444.10;;;2.53;91.57
61898;BME280;47850;50.274;18.908;2022-12-05T08:59:42;98444.18;;;2.58;91.52
61898;BME280;47850;50.274;18.908;2022-12-05T09:02:09;98444.91;;;2.65;91.43
61898;BME280;47850;50.274;18.908;2022-12-05T09:04:34;98439.30;;;2.71;91.05
61898;BME280;47850;50.274;18.908;2022-12-05T09:07:01;98435.06;;;2.76;91.06
61898;BME280;47850;50.274;18.908;2022-12-05T09:09:28;98431.50;;;2.84;90.81
61898;BME280;47850;50.274;18.908;2022-12-05T09:11:54;98431.91;;;2.92;90.62
61898;BME280;47850;50.274;18.908;2022-12-05T09:14:19;98432.86;;;3.00;90.59
61898;BME280;47850;50.274;18.908;2022-12-05T09:16:46;98437.20;;;3.06;90.00
61898;BME280;47850;50.274;18.908;2022-12-05T09:19:14;98434.63;;;3.11;89.83
61898;BME280;47850;50.274;18.908;2022-12-05T09:21:41;98429.30;;;3.10;89.38
61898;BME280;47850;50.274;18.908;2022-12-05T09:24:07;98427.26;;;3.12;89.12
61898;BME280;47850;50.274;18.908;2022-12-05T09:26:33;98418.52;;;3.08;88.79
61898;BME280;47850;50.274;18.908;2022-12-05T09:29:00;98418.13;;;3.09;89.01
61898;BME280;47850;50.274;18.908;2022-12-05T09:31:25;98420.73;;;3.12;89.20
61898;BME280;47850;50.274;18.908;2022-12-05T09:33:52;98420.81;;;3.20;89.46
61898;BME280;47850;50.274;18.908;2022-12-05T09:36:19;98419.66;;;3.30;89.32
61898;BME280;47850;50.274;18.908;2022-12-05T09:38:45;98416.56;;;3.38;89.15
61898;BME280;47850;50.274;18.908;2022-12-05T09:50:20;98412.49;;;3.55;87.91
61898;BME280;47850;50.274;18.908;2022-12-05T09:55:42;98409.26;;;3.53;87.69
61898;BME280;47850;50.274;18.908;2022-12-05T09:58:42;98407.20;;;3.56;87.70
61898;BME280;47850;50.274;18.908;2022-12-05T10:01:38;98407.16;;;3.68;88.09
61898;BME280;47850;50.274;18.908;2022-12-05T10:10:51;98398.44;;;3.94;87.10
61898;BME280;47850;50.274;18.908;2022-12-05T10:15:50;98398.59;;;4.17;86.35
61898;BME280;47850;50.274;18.908;2022-12-05T10:21:02;98395.33;;;4.33;85.95
61898;BME280;47850;50.274;18.908;2022-12-05T10:23:52;98398.56;;;4.31;85.69
61898;BME280;47850;50.274;18.908;2022-12-05T10:26:16;98397.64;;;4.32;85.74
61898;BME280;47850;50.274;18.908;2022-12-05T10:31:35;98392.27;;;4.30;85.79
61898;BME280;47850;50.274;18.908;2022-12-05T10:34:08;98390.27;;;4.27;85.51
61898;BME280;47850;50.274;18.908;2022-12-05T10:36:36;98393.73;;;4.21;85.33
61898;BME280;47850;50.274;18.908;2022-12-05T10:39:01;98393.56;;;4.19;85.62
61898;BME280;47850;50.274;18.908;2022-12-05T10:41:27;98393.09;;;4.21;85.73
61898;BME280;47850;50.274;18.908;2022-12-05T10:43:53;98397.84;;;4.21;85.62
61898;BME280;47850;50.274;18.908;2022-12-05T10:46:20;98388.98;;;4.18;85.33
61898;BME280;47850;50.274;18.908;2022-12-05T10:48:46;98390.39;;;4.17;85.60
61898;BME280;47850;50.274;18.908;2022-12-05T10:51:14;98384.71;;;4.15;85.55
61898;BME280;47850;50.274;18.908;2022-12-05T10:53:42;98381.59;;;4.15;85.76
61898;BME280;47850;50.274;18.908;2022-12-05T10:59:11;98384.71;;;4.18;85.54
61898;BME280;47850;50.274;18.908;2022-12-05T11:01:53;98381.21;;;4.16;85.72
61898;BME280;47850;50.274;18.908;2022-12-05T11:04:38;98385.21;;;4.16;85.69
61898;BME280;47850;50.274;18.908;2022-12-05T11:07:23;98391.58;;;4.13;85.74
61898;BME280;47850;50.274;18.908;2022-12-05T11:09:50;98396.54;;;4.10;85.66
61898;BME280;47850;50.274;18.908;2022-12-05T11:12:26;98389.80;;;4.10;85.57
61898;BME280;47850;50.274;18.908;2022-12-05T11:17:34;98392.34;;;4.06;85.62
61898;BME280;47850;50.274;18.908;2022-12-05T11:20:03;98390.40;;;4.05;85.79
61898;BME280;47850;50.274;18.908;2022-12-05T11:22:52;98393.26;;;4.07;85.86
61898;BME280;47850;50.274;18.908;2022-12-05T11:25:28;98389.42;;;4.09;85.98
61898;BME280;47850;50.274;18.908;2022-12-05T11:27:59;98390.88;;;4.12;85.94
61898;BME280;47850;50.274;18.908;2022-12-05T11:30:26;98393.73;;;4.13;85.88
61898;BME280;47850;50.274;18.908;2022-12-05T11:33:22;98395.02;;;4.14;85.95
61898;BME280;47850;50.274;18.908;2022-12-05T11:35:50;98396.16;;;4.15;85.83
61898;BME280;47850;50.274;18.908;2022-12-05T11:38:18;98392.00;;;4.18;85.92
61898;BME280;47850;50.274;18.908;2022-12-05T11:40:47;98384.98;;;4.22;85.93
61898;BME280;47850;50.274;18.908;2022-12-05T11:48:50;98389.98;;;4.25;85.35
61898;BME280;47850;50.274;18.908;2022-12-05T11:51:44;98389.41;;;4.21;85.27
61898;BME280;47850;50.274;18.908;2022-12-05T11:54:41;98387.25;;;4.21;85.52
61898;BME280;47850;50.274;18.908;2022-12-05T12:00:08;98387.14;;;4.21;85.48
61898;BME280;47850;50.274;18.908;2022-12-05T12:08:37;98383.03;;;4.20;85.51
61898;BME280;47850;50.274;18.908;2022-12-05T12:16:39;98377.96;;;4.22;85.44
61898;BME280;47850;50.274;18.908;2022-12-05T12:22:01;98376.67;;;4.20;85.47
61898;BME280;47850;50.274;18.908;2022-12-05T12:36:27;98365.70;;;4.28;85.70
61898;BME280;47850;50.274;18.908;2022-12-05T12:50:24;98357.48;;;4.51;85.68
61898;BME280;47850;50.274;18.908;2022-12-05T12:53:30;98351.85;;;4.55;85.59
61898;BME280;47850;50.274;18.908;2022-12-05T13:04:49;98350.56;;;4.71;85.24
61898;BME280;47850;50.274;18.908;2022-12-05T13:07:38;98352.30;;;4.70;84.90
61898;BME280;47850;50.274;18.908;2022-12-05T13:10:13;98352.95;;;4.69;85.15
61898;BME280;47850;50.274;18.908;2022-12-05T13:12:43;98354.61;;;4.71;85.27
61898;BME280;47850;50.274;18.908;2022-12-05T13:15:15;98353.59;;;4.72;85.32
61898;BME280;47850;50.274;18.908;2022-12-05T13:17:44;98354.21;;;4.76;85.42
61898;BME280;47850;50.274;18.908;2022-12-05T13:20:21;98353.98;;;4.79;85.44
61898;BME280;47850;50.274;18.908;2022-12-05T13:22:50;98351.29;;;4.79;85.23
61898;BME280;47850;50.274;18.908;2022-12-05T13:25:20;98350.46;;;4.81;85.32
61898;BME280;47850;50.274;18.908;2022-12-05T13:27:57;98352.50;;;4.82;85.20
61898;BME280;47850;50.274;18.908;2022-12-05T13:30:24;98353.09;;;4.82;85.16
61898;BME280;47850;50.274;18.908;2022-12-05T13:33:08;98355.32;;;4.82;85.00
61898;BME280;47850;50.274;18.908;2022-12-05T13:35:35;98355.53;;;4.81;85.08
61898;BME280;47850;50.274;18.908;2022-12-05T13:38:26;98350.62;;;4.81;85.28
61898;BME280;47850;50.274;18.908;2022-12-05T13:41:11;98352.61;;;4.81;85.20
61898;BME280;47850;50.274;18.908;2022-12-05T13:43:56;98352.52;;;4.78;85.18
61898;BME280;47850;50.274;18.908;2022-12-05T13:46:26;98355.78;;;4.74;85.16
61898;BME280;47850;50.274;18.908;2022-12-05T13:49:00;98354.99;;;4.69;85.18
61898;BME280;47850;50.274;18.908;2022-12-05T13:51:37;98352.73;;;4.66;85.27
61898;BME280;47850;50.274;18.908;2022-12-05T13:54:18;98357.23;;;4.61;85.28
61898;BME280;47850;50.274;18.908;2022-12-05T13:56:57;98360.13;;;4.57;85.32
61898;BME280;47850;50.274;18.908;2022-12-05T14:07:43;98370.33;;;4.53;86.12
61898;BME280;47850;50.274;18.908;2022-12-05T14:10:12;98366.02;;;4.52;86.06
61898;BME280;47850;50.274;18.908;2022-12-05T14:12:58;98366.89;;;4.50;85.94
61898;BME280;47850;50.274;18.908;2022-12-05T14:17:56;98362.64;;;4.42;86.08
61898;BME280;47850;50.274;18.908;2022-12-05T14:20:57;98366.59;;;4.39;86.13
61898;BME280;47850;50.274;18.908;2022-12-05T14:34:36;98371.73;;;4.27;86.80
61898;BME280;47850;50.274;18.908;2022-12-05T14:37:06;98372.83;;;4.26;86.85
61898;BME280;47850;50.274;18.908;2022-12-05T14:39:42;98375.52;;;4.27;86.96
61898;BME280;47850;50.274;18.908;2022-12-05T14:42:22;98379.40;;;4.27;86.95
61898;BME280;47850;50.274;18.908;2022-12-05T14:44:50;98379.04;;;4.25;86.99
61898;BME280;47850;50.274;18.908;2022-12-05T14:47:22;98374.02;;;4.23;86.97
61898;BME280;47850;50.274;18.908;2022-12-05T14:52:41;98367.16;;;4.20;87.10
61898;BME280;47850;50.274;18.908;2022-12-05T14:55:12;98362.85;;;4.17;87.26
61898;BME280;47850;50.274;18.908;2022-12-05T14:57:46;98367.60;;;4.14;87.51
61898;BME280;47850;50.274;18.908;2022-12-05T15:00:20;98367.02;;;4.12;87.51
61898;BME280;47850;50.274;18.908;2022-12-05T15:02:47;98366.80;;;4.11;87.63
61898;BME280;47850;50.274;18.908;2022-12-05T15:05:31;98366.75;;;4.10;87.67
61898;BME280;47850;50.274;18.908;2022-12-05T15:07:58;98361.85;;;4.09;87.80
61898;BME280;47850;50.274;18.908;2022-12-05T15:10:34;98362.77;;;4.07;87.89
61898;BME280;47850;50.274;18.908;2022-12-05T15:13:08;98365.84;;;4.05;87.98
61898;BME280;47850;50.274;18.908;2022-12-05T15:15:41;98360.39;;;4.03;88.09
61898;BME280;47850;50.274;18.908;2022-12-05T15:18:30;98359.69;;;4.02;88.17
61898;BME280;47850;50.274;18.908;2022-12-05T15:23:45;98363.51;;;3.99;88.16
61898;BME280;47850;50.274;18.908;2022-12-05T15:29:07;98363.14;;;3.99;88.27
61898;BME280;47850;50.274;18.908;2022-12-05T15:31:57;98360.77;;;3.99;88.32
61898;BME280;47850;50.274;18.908;2022-12-05T15:34:28;98360.44;;;3.98;88.25
61898;BME280;47850;50.274;18.908;2022-12-05T15:40:00;98354.66;;;3.97;88.51
61898;BME280;47850;50.274;18.908;2022-12-05T15:42:40;98353.31;;;3.97;88.56
61898;BME280;47850;50.274;18.908;2022-12-05T15:45:13;98354.02;;;3.97;88.58
61898;BME280;47850;50.274;18.908;2022-12-05T15:47:43;98353.05;;;3.96;88.63
61898;BME280;47850;50.274;18.908;2022-12-05T15:50:32;98353.44;;;3.95;88.55
61898;BME280;47850;50.274;18.908;2022-12-05T16:01:22;98344.64;;;3.91;88.82
61898;BME280;47850;50.274;18.908;2022-12-05T16:03:58;98346.80;;;3.90;88.81
61898;BME280;47850;50.274;18.908;2022-12-05T16:09:05;98350.67;;;3.91;88.95
61898;BME280;47850;50.274;18.908;2022-12-05T16:11:31;98352.19;;;3.90;88.85